sensor_id;sensor_type;location;lat;lon;timestamp;temperature;humidity
66598;DHT22;57424;53.128;6.406;2023-04-06T00:00:36;18.40;46.40
66598;DHT22;57424;53.128;6.406;2023-04-06T00:03:02;18.40;46.40
66598;DHT22;57424;53.128;6.406;2023-04-06T00:05:27;18.40;47.10
66598;DHT22;57424;53.128;6.406;2023-04-06T00:07:56;18.40;46.40
66598;DHT22;57424;53.128;6.406;2023-04-06T00:10:22;18.40;46.30
66598;DHT22;57424;53.128;6.406;2023-04-06T00:12:48;18.40;46.40
66598;DHT22;57424;53.128;6.406;2023-04-06T00:15:13;18.30;46.20
66598;DHT22;57424;53.128;6.406;2023-04-06T00:17:39;18.30;46.20
66598;DHT22;57424;53.128;6.406;2023-04-06T00:20:05;18.40;46.30
66598;DHT22;57424;53.128;6.406;2023-04-06T00:22:32;18.30;46.20
66598;DHT22;57424;53.128;6.406;2023-04-06T00:24:57;18.30;46.20
66598;DHT22;57424;53.128;6.406;2023-04-06T00:27:23;18.30;46.20
66598;DHT22;57424;53.128;6.406;2023-04-06T00:29:48;18.30;46.20
66598;DHT22;57424;53.128;6.406;2023-04-06T00:32:14;18.30;46.20
66598;DHT22;57424;53.128;6.406;2023-04-06T00:34:39;18.20;46.10
66598;DHT22;57424;53.128;6.406;2023-04-06T00:37:05;18.20;46.10
66598;DHT22;57424;53.128;6.406;2023-04-06T00:39:31;18.20;46.10
66598;DHT22;57424;53.128;6.406;2023-04-06T00:41:56;18.20;46.10
66598;DHT22;57424;53.128;6.406;2023-04-06T00:44:22;18.20;46.10
66598;DHT22;57424;53.128;6.406;2023-04-06T00:46:48;18.20;46.00
66598;DHT22;57424;53.128;6.406;2023-04-06T00:49:13;18.20;46.00
66598;DHT22;57424;53.128;6.406;2023-04-06T00:51:39;18.20;46.10
66598;DHT22;57424;53.128;6.406;2023-04-06T00:54:05;18.20;46.00
66598;DHT22;57424;53.128;6.406;2023-04-06T00:56:31;18.10;45.90
66598;DHT22;57424;53.128;6.406;2023-04-06T00:58:57;18.10;45.90
66598;DHT22;57424;53.128;6.406;2023-04-06T01:01:23;18.20;45.90
66598;DHT22;57424;53.128;6.406;2023-04-06T01:03:49;18.10;45.90
66598;DHT22;57424;53.128;6.406;2023-04-06T01:06:15;18.10;45.80
66598;DHT22;57424;53.128;6.406;2023-04-06T01:08:41;18.10;45.80
66598;DHT22;57424;53.128;6.406;2023-04-06T01:11:07;18.10;45.80
66598;DHT22;57424;53.128;6.406;2023-04-06T01:13:32;18.10;45.80
66598;DHT22;57424;53.128;6.406;2023-04-06T01:15:58;18.10;45.80
66598;DHT22;57424;53.128;6.406;2023-04-06T01:18:27;18.10;45.80
66598;DHT22;57424;53.128;6.406;2023-04-06T01:20:53;18.00;45.70
66598;DHT22;57424;53.128;6.406;2023-04-06T01:23:19;18.00;45.70
66598;DHT22;57424;53.128;6.406;2023-04-06T01:25:44;18.00;45.70
66598;DHT22;57424;53.128;6.406;2023-04-06T01:28:10;18.10;45.80
66598;DHT22;57424;53.128;6.406;2023-04-06T01:30:36;18.00;45.70
66598;DHT22;57424;53.128;6.406;2023-04-06T01:33:01;18.00;45.70
66598;DHT22;57424;53.128;6.406;2023-04-06T01:35:27;18.00;45.70
66598;DHT22;57424;53.128;6.406;2023-04-06T01:37:53;18.00;45.60
66598;DHT22;57424;53.128;6.406;2023-04-06T01:40:19;18.00;45.70
66598;DHT22;57424;53.128;6.406;2023-04-06T01:42:44;17.90;45.60
66598;DHT22;57424;53.128;6.406;2023-04-06T01:45:10;17.90;45.60
66598;DHT22;57424;53.128;6.406;2023-04-06T01:47:36;17.90;45.60
66598;DHT22;57424;53.128;6.406;2023-04-06T01:50:01;18.00;46.30
66598;DHT22;57424;53.128;6.406;2023-04-06T01:52:30;17.90;45.50
66598;DHT22;57424;53.128;6.406;2023-04-06T01:54:56;17.90;45.50
66598;DHT22;57424;53.128;6.406;2023-04-06T01:57:21;17.90;45.50
66598;DHT22;57424;53.128;6.406;2023-04-06T01:59:47;17.90;45.50
66598;DHT22;57424;53.128;6.406;2023-04-06T02:02:12;17.90;45.40
66598;DHT22;57424;53.128;6.406;2023-04-06T02:04:38;17.90;45.50
66598;DHT22;57424;53.128;6.406;2023-04-06T02:07:04;17.90;45.50
66598;DHT22;57424;53.128;6.406;2023-04-06T02:09:30;17.90;45.40
66598;DHT22;57424;53.128;6.406;2023-04-06T02:11:55;17.80;45.40
66598;DHT22;57424;53.128;6.406;2023-04-06T02:14:23;17.80;45.40
66598;DHT22;57424;53.128;6.406;2023-04-06T02:16:49;17.80;45.40
66598;DHT22;57424;53.128;6.406;2023-04-06T02:19:14;17.80;45.40
66598;DHT22;57424;53.128;6.406;2023-04-06T02:21:40;17.80;45.40
66598;DHT22;57424;53.128;6.406;2023-04-06T02:24:06;17.80;45.40
66598;DHT22;57424;53.128;6.406;2023-04-06T02:26:31;17.80;45.30
66598;DHT22;57424;53.128;6.406;2023-04-06T02:28:57;17.80;45.40
66598;DHT22;57424;53.128;6.406;2023-04-06T02:31:22;17.80;45.30
66598;DHT22;57424;53.128;6.406;2023-04-06T02:33:48;17.70;45.30
66598;DHT22;57424;53.128;6.406;2023-04-06T02:36:13;17.70;45.30
66598;DHT22;57424;53.128;6.406;2023-04-06T02:38:39;17.80;45.30
66598;DHT22;57424;53.128;6.406;2023-04-06T02:41:04;17.70;45.30
66598;DHT22;57424;53.128;6.406;2023-04-06T02:43:30;17.70;45.30
66598;DHT22;57424;53.128;6.406;2023-04-06T02:45:56;17.70;45.30
66598;DHT22;57424;53.128;6.406;2023-04-06T02:48:21;17.70;45.30
66598;DHT22;57424;53.128;6.406;2023-04-06T02:50:47;17.70;45.30
66598;DHT22;57424;53.128;6.406;2023-04-06T02:53:13;17.70;45.20
66598;DHT22;57424;53.128;6.406;2023-04-06T02:55:38;17.70;45.20
66598;DHT22;57424;53.128;6.406;2023-04-06T02:58:04;17.70;45.20
66598;DHT22;57424;53.128;6.406;2023-04-06T03:00:29;17.70;45.30
66598;DHT22;57424;53.128;6.406;2023-04-06T03:02:55;17.60;45.20
66598;DHT22;57424;53.128;6.406;2023-04-06T03:05:21;17.60;45.20
66598;DHT22;57424;53.128;6.406;2023-04-06T03:07:46;17.60;45.20
66598;DHT22;57424;53.128;6.406;2023-04-06T03:10:12;17.60;45.20
66598;DHT22;57424;53.128;6.406;2023-04-06T03:12:37;17.60;45.20
66598;DHT22;57424;53.128;6.406;2023-04-06T03:15:03;17.60;45.20
66598;DHT22;57424;53.128;6.406;2023-04-06T03:17:29;17.60;45.20
66598;DHT22;57424;53.128;6.406;2023-04-06T03:19:54;17.60;45.20
66598;DHT22;57424;53.128;6.406;2023-04-06T03:22:20;17.60;45.20
66598;DHT22;57424;53.128;6.406;2023-04-06T03:24:46;17.50;45.10
66598;DHT22;57424;53.128;6.406;2023-04-06T03:27:11;17.50;45.10
66598;DHT22;57424;53.128;6.406;2023-04-06T03:29:37;17.50;45.10
66598;DHT22;57424;53.128;6.406;2023-04-06T03:32:03;17.50;45.10
66598;DHT22;57424;53.128;6.406;2023-04-06T03:34:28;17.50;45.20
66598;DHT22;57424;53.128;6.406;2023-04-06T03:36:54;17.50;45.10
66598;DHT22;57424;53.128;6.406;2023-04-06T03:39:20;17.50;45.10
66598;DHT22;57424;53.128;6.406;2023-04-06T03:41:45;17.50;45.10
66598;DHT22;57424;53.128;6.406;2023-04-06T03:44:11;17.50;45.10
66598;DHT22;57424;53.128;6.406;2023-04-06T03:46:36;17.50;45.10
66598;DHT22;57424;53.128;6.406;2023-04-06T03:49:02;17.50;45.10
66598;DHT22;57424;53.128;6.406;2023-04-06T03:51:28;17.40;45.00
66598;DHT22;57424;53.128;6.406;2023-04-06T03:53:53;17.50;45.00
66598;DHT22;57424;53.128;6.406;2023-04-06T03:56:19;17.50;45.00
66598;DHT22;57424;53.128;6.406;2023-04-06T03:58:45;17.40;45.00
66598;DHT22;57424;53.128;6.406;2023-04-06T04:01:11;17.40;45.00
66598;DHT22;57424;53.128;6.406;2023-04-06T04:03:36;17.40;45.00
66598;DHT22;57424;53.128;6.406;2023-04-06T04:06:02;17.40;45.00
66598;DHT22;57424;53.128;6.406;2023-04-06T04:08:27;17.40;45.00
66598;DHT22;57424;53.128;6.406;2023-04-06T04:10:53;17.40;45.00
66598;DHT22;57424;53.128;6.406;2023-04-06T04:13:19;17.40;44.90
66598;DHT22;57424;53.128;6.406;2023-04-06T04:15:45;17.40;44.90
66598;DHT22;57424;53.128;6.406;2023-04-06T04:18:12;17.40;44.90
66598;DHT22;57424;53.128;6.406;2023-04-06T04:20:38;17.40;44.90
66598;DHT22;57424;53.128;6.406;2023-04-06T04:23:04;17.40;44.90
66598;DHT22;57424;53.128;6.406;2023-04-06T04:25:29;17.40;44.90
66598;DHT22;57424;53.128;6.406;2023-04-06T04:27:55;17.40;44.80
66598;DHT22;57424;53.128;6.406;2023-04-06T04:30:20;17.30;44.80
66598;DHT22;57424;53.128;6.406;2023-04-06T04:32:46;17.40;44.80
66598;DHT22;57424;53.128;6.406;2023-04-06T04:35:12;17.30;44.70
66598;DHT22;57424;53.128;6.406;2023-04-06T04:37:40;17.30;44.80
66598;DHT22;57424;53.128;6.406;2023-04-06T04:40:06;17.30;44.80
66598;DHT22;57424;53.128;6.406;2023-04-06T04:42:32;17.30;44.70
66598;DHT22;57424;53.128;6.406;2023-04-06T04:44:57;17.30;44.70
66598;DHT22;57424;53.128;6.406;2023-04-06T04:47:23;17.30;44.70
66598;DHT22;57424;53.128;6.406;2023-04-06T04:49:48;17.30;44.70
66598;DHT22;57424;53.128;6.406;2023-04-06T04:52:14;17.30;44.70
66598;DHT22;57424;53.128;6.406;2023-04-06T04:54:40;17.30;44.80
66598;DHT22;57424;53.128;6.406;2023-04-06T04:57:06;17.30;44.90
66598;DHT22;57424;53.128;6.406;2023-04-06T04:59:33;17.30;45.10
66598;DHT22;57424;53.128;6.406;2023-04-06T05:01:59;17.30;45.10
66598;DHT22;57424;53.128;6.406;2023-04-06T05:04:25;17.30;45.20
66598;DHT22;57424;53.128;6.406;2023-04-06T05:07:04;17.30;45.30
66598;DHT22;57424;53.128;6.406;2023-04-06T05:09:30;17.30;45.30
66598;DHT22;57424;53.128;6.406;2023-04-06T05:11:57;17.30;45.40
66598;DHT22;57424;53.128;6.406;2023-04-06T05:14:22;17.30;45.40
66598;DHT22;57424;53.128;6.406;2023-04-06T05:16:48;17.30;45.40
66598;DHT22;57424;53.128;6.406;2023-04-06T05:19:13;17.30;45.30
66598;DHT22;57424;53.128;6.406;2023-04-06T05:21:39;17.30;45.20
66598;DHT22;57424;53.128;6.406;2023-04-06T05:24:04;17.30;45.10
66598;DHT22;57424;53.128;6.406;2023-04-06T05:26:30;17.30;45.10
66598;DHT22;57424;53.128;6.406;2023-04-06T05:28:56;17.30;45.10
66598;DHT22;57424;53.128;6.406;2023-04-06T05:31:21;17.30;45.00
66598;DHT22;57424;53.128;6.406;2023-04-06T05:33:47;17.30;45.00
66598;DHT22;57424;53.128;6.406;2023-04-06T05:36:12;17.30;45.00
66598;DHT22;57424;53.128;6.406;2023-04-06T05:38:38;17.30;45.00
66598;DHT22;57424;53.128;6.406;2023-04-06T05:41:04;17.30;44.90
66598;DHT22;57424;53.128;6.406;2023-04-06T05:43:29;17.30;45.10
66598;DHT22;57424;53.128;6.406;2023-04-06T05:45:55;17.30;45.40
66598;DHT22;57424;53.128;6.406;2023-04-06T05:48:21;17.30;45.60
66598;DHT22;57424;53.128;6.406;2023-04-06T05:50:50;17.40;45.90
66598;DHT22;57424;53.128;6.406;2023-04-06T05:53:16;17.40;46.00
66598;DHT22;57424;53.128;6.406;2023-04-06T05:55:41;17.40;45.90
66598;DHT22;57424;53.128;6.406;2023-04-06T05:58:07;17.40;45.80
66598;DHT22;57424;53.128;6.406;2023-04-06T06:00:32;17.40;45.80
66598;DHT22;57424;53.128;6.406;2023-04-06T06:02:58;17.40;45.70
66598;DHT22;57424;53.128;6.406;2023-04-06T06:05:24;17.50;45.60
66598;DHT22;57424;53.128;6.406;2023-04-06T06:07:49;17.40;45.40
66598;DHT22;57424;53.128;6.406;2023-04-06T06:10:15;17.40;45.30
66598;DHT22;57424;53.128;6.406;2023-04-06T06:12:41;17.40;45.30
66598;DHT22;57424;53.128;6.406;2023-04-06T06:15:07;17.50;45.30
66598;DHT22;57424;53.128;6.406;2023-04-06T06:17:32;17.50;45.30
66598;DHT22;57424;53.128;6.406;2023-04-06T06:19:58;17.50;45.30
66598;DHT22;57424;53.128;6.406;2023-04-06T06:22:23;17.50;45.30
66598;DHT22;57424;53.128;6.406;2023-04-06T06:24:49;17.50;45.20
66598;DHT22;57424;53.128;6.406;2023-04-06T06:27:15;17.50;45.20
66598;DHT22;57424;53.128;6.406;2023-04-06T06:29:41;17.50;45.10
66598;DHT22;57424;53.128;6.406;2023-04-06T06:32:07;17.60;45.20
66598;DHT22;57424;53.128;6.406;2023-04-06T06:34:34;17.50;45.10
66598;DHT22;57424;53.128;6.406;2023-04-06T06:37:00;17.50;45.10
66598;DHT22;57424;53.128;6.406;2023-04-06T06:39:27;17.60;45.20
66598;DHT22;57424;53.128;6.406;2023-04-06T06:41:53;17.60;45.20
66598;DHT22;57424;53.128;6.406;2023-04-06T06:44:20;17.60;45.20
66598;DHT22;57424;53.128;6.406;2023-04-06T06:46:47;17.70;46.10
66598;DHT22;57424;53.128;6.406;2023-04-06T06:49:12;17.70;46.10
66598;DHT22;57424;53.128;6.406;2023-04-06T06:51:39;17.80;46.00
66598;DHT22;57424;53.128;6.406;2023-04-06T06:54:05;17.80;45.80
66598;DHT22;57424;53.128;6.406;2023-04-06T06:56:31;18.00;45.60
66598;DHT22;57424;53.128;6.406;2023-04-06T06:58:56;18.10;45.40
66598;DHT22;57424;53.128;6.406;2023-04-06T07:01:22;18.20;45.20
66598;DHT22;57424;53.128;6.406;2023-04-06T07:03:47;18.30;45.00
66598;DHT22;57424;53.128;6.406;2023-04-06T07:06:13;18.40;44.80
66598;DHT22;57424;53.128;6.406;2023-04-06T07:08:39;18.60;44.80
66598;DHT22;57424;53.128;6.406;2023-04-06T07:11:04;18.60;44.50
66598;DHT22;57424;53.128;6.406;2023-04-06T07:13:30;18.80;44.60
66598;DHT22;57424;53.128;6.406;2023-04-06T07:15:56;18.80;44.50
66598;DHT22;57424;53.128;6.406;2023-04-06T07:18:22;19.00;44.50
66598;DHT22;57424;53.128;6.406;2023-04-06T07:20:48;19.10;44.50
66598;DHT22;57424;53.128;6.406;2023-04-06T07:23:13;19.10;44.30
66598;DHT22;57424;53.128;6.406;2023-04-06T07:25:39;19.30;44.30
66598;DHT22;57424;53.128;6.406;2023-04-06T07:28:05;19.30;44.10
66598;DHT22;57424;53.128;6.406;2023-04-06T07:30:30;19.50;44.10
66598;DHT22;57424;53.128;6.406;2023-04-06T07:32:56;19.50;43.80
66598;DHT22;57424;53.128;6.406;2023-04-06T07:35:23;19.60;43.70
66598;DHT22;57424;53.128;6.406;2023-04-06T07:37:49;19.70;43.60
66598;DHT22;57424;53.128;6.406;2023-04-06T07:40:15;19.70;43.50
66598;DHT22;57424;53.128;6.406;2023-04-06T07:42:41;19.80;43.40
66598;DHT22;57424;53.128;6.406;2023-04-06T07:45:06;19.90;43.40
66598;DHT22;57424;53.128;6.406;2023-04-06T07:47:33;19.90;43.30
66598;DHT22;57424;53.128;6.406;2023-04-06T07:49:58;20.00;43.20
66598;DHT22;57424;53.128;6.406;2023-04-06T07:52:24;20.00;43.10
66598;DHT22;57424;53.128;6.406;2023-04-06T07:54:50;20.10;43.10
66598;DHT22;57424;53.128;6.406;2023-04-06T07:57:15;20.20;43.10
66598;DHT22;57424;53.128;6.406;2023-04-06T07:59:41;20.20;43.00
66598;DHT22;57424;53.128;6.406;2023-04-06T08:02:07;20.30;43.10
66598;DHT22;57424;53.128;6.406;2023-04-06T08:04:32;20.30;42.90
66598;DHT22;57424;53.128;6.406;2023-04-06T08:06:58;20.40;43.00
66598;DHT22;57424;53.128;6.406;2023-04-06T08:09:23;20.40;42.80
66598;DHT22;57424;53.128;6.406;2023-04-06T08:11:49;20.40;42.90
66598;DHT22;57424;53.128;6.406;2023-04-06T08:14:15;20.50;42.80
66598;DHT22;57424;53.128;6.406;2023-04-06T08:16:41;20.60;42.80
66598;DHT22;57424;53.128;6.406;2023-04-06T08:19:07;20.60;42.80
66598;DHT22;57424;53.128;6.406;2023-04-06T08:21:35;20.60;42.70
66598;DHT22;57424;53.128;6.406;2023-04-06T08:24:01;20.70;42.70
66598;DHT22;57424;53.128;6.406;2023-04-06T08:26:27;20.70;42.70
66598;DHT22;57424;53.128;6.406;2023-04-06T08:28:53;20.70;42.70
66598;DHT22;57424;53.128;6.406;2023-04-06T08:31:19;20.70;42.70
66598;DHT22;57424;53.128;6.406;2023-04-06T08:33:44;20.80;42.70
66598;DHT22;57424;53.128;6.406;2023-04-06T08:36:12;20.80;42.60
66598;DHT22;57424;53.128;6.406;2023-04-06T08:38:38;20.80;42.70
66598;DHT22;57424;53.128;6.406;2023-04-06T08:43:39;21.00;43.00
66598;DHT22;57424;53.128;6.406;2023-04-06T08:46:08;21.00;43.10
66598;DHT22;57424;53.128;6.406;2023-04-06T08:48:34;21.10;43.10
66598;DHT22;57424;53.128;6.406;2023-04-06T08:51:02;21.10;43.00
66598;DHT22;57424;53.128;6.406;2023-04-06T08:53:27;21.20;43.00
66598;DHT22;57424;53.128;6.406;2023-04-06T08:55:54;21.20;42.90
66598;DHT22;57424;53.128;6.406;2023-04-06T08:58:20;21.20;43.00
66598;DHT22;57424;53.128;6.406;2023-04-06T09:00:46;21.20;42.90
66598;DHT22;57424;53.128;6.406;2023-04-06T09:03:13;21.30;43.00
66598;DHT22;57424;53.128;6.406;2023-04-06T09:05:39;21.30;43.00
66598;DHT22;57424;53.128;6.406;2023-04-06T09:08:05;21.30;43.10
66598;DHT22;57424;53.128;6.406;2023-04-06T09:10:32;21.30;43.10
66598;DHT22;57424;53.128;6.406;2023-04-06T09:13:08;21.40;43.10
66598;DHT22;57424;53.128;6.406;2023-04-06T09:15:34;21.40;43.10
66598;DHT22;57424;53.128;6.406;2023-04-06T09:18:00;21.40;43.10
66598;DHT22;57424;53.128;6.406;2023-04-06T09:20:26;21.40;43.00
66598;DHT22;57424;53.128;6.406;2023-04-06T09:22:54;21.40;42.90
66598;DHT22;57424;53.128;6.406;2023-04-06T09:25:22;21.40;42.90
66598;DHT22;57424;53.128;6.406;2023-04-06T09:27:57;21.40;43.60
66598;DHT22;57424;53.128;6.406;2023-04-06T09:30:23;21.40;42.90
66598;DHT22;57424;53.128;6.406;2023-04-06T09:32:54;21.30;42.90
66598;DHT22;57424;53.128;6.406;2023-04-06T09:35:21;21.30;42.90
66598;DHT22;57424;53.128;6.406;2023-04-06T09:37:48;21.30;43.00
66598;DHT22;57424;53.128;6.406;2023-04-06T09:40:14;21.30;43.00
66598;DHT22;57424;53.128;6.406;2023-04-06T09:42:46;21.30;43.10
66598;DHT22;57424;53.128;6.406;2023-04-06T09:45:12;21.30;43.20
66598;DHT22;57424;53.128;6.406;2023-04-06T09:47:40;21.30;43.30
66598;DHT22;57424;53.128;6.406;2023-04-06T09:50:07;21.30;43.30
66598;DHT22;57424;53.128;6.406;2023-04-06T09:52:54;21.30;43.40
66598;DHT22;57424;53.128;6.406;2023-04-06T09:55:36;21.30;43.60
66598;DHT22;57424;53.128;6.406;2023-04-06T09:58:07;21.30;43.70
66598;DHT22;57424;53.128;6.406;2023-04-06T10:06:11;21.30;44.40
66598;DHT22;57424;53.128;6.406;2023-04-06T10:08:40;21.30;43.70
66598;DHT22;57424;53.128;6.406;2023-04-06T10:11:08;21.40;43.80
66598;DHT22;57424;53.128;6.406;2023-04-06T10:13:34;21.40;43.80
66598;DHT22;57424;53.128;6.406;2023-04-06T10:16:00;21.40;44.00
66598;DHT22;57424;53.128;6.406;2023-04-06T10:18:29;21.40;43.80
66598;DHT22;57424;53.128;6.406;2023-04-06T10:21:00;21.40;43.70
66598;DHT22;57424;53.128;6.406;2023-04-06T10:23:46;21.50;43.70
66598;DHT22;57424;53.128;6.406;2023-04-06T10:26:14;21.50;43.60
66598;DHT22;57424;53.128;6.406;2023-04-06T10:28:42;21.50;43.50
66598;DHT22;57424;53.128;6.406;2023-04-06T10:31:08;21.50;43.30
66598;DHT22;57424;53.128;6.406;2023-04-06T10:33:34;21.50;43.30
66598;DHT22;57424;53.128;6.406;2023-04-06T10:36:13;21.50;43.20
66598;DHT22;57424;53.128;6.406;2023-04-06T10:38:40;21.60;43.10
66598;DHT22;57424;53.128;6.406;2023-04-06T10:41:08;21.60;43.00
66598;DHT22;57424;53.128;6.406;2023-04-06T10:43:35;21.60;42.80
66598;DHT22;57424;53.128;6.406;2023-04-06T10:46:06;21.60;42.80
66598;DHT22;57424;53.128;6.406;2023-04-06T10:48:45;21.60;43.40
66598;DHT22;57424;53.128;6.406;2023-04-06T10:51:16;21.60;42.60
66598;DHT22;57424;53.128;6.406;2023-04-06T10:53:43;21.70;42.60
66598;DHT22;57424;53.128;6.406;2023-04-06T10:56:11;21.70;42.50
66598;DHT22;57424;53.128;6.406;2023-04-06T10:58:37;21.70;42.50
66598;DHT22;57424;53.128;6.406;2023-04-06T11:01:03;21.70;42.50
66598;DHT22;57424;53.128;6.406;2023-04-06T11:03:29;21.70;42.50
66598;DHT22;57424;53.128;6.406;2023-04-06T11:05:55;21.70;42.50
66598;DHT22;57424;53.128;6.406;2023-04-06T11:08:30;21.70;42.50
66598;DHT22;57424;53.128;6.406;2023-04-06T11:11:09;21.70;42.50
66598;DHT22;57424;53.128;6.406;2023-04-06T11:13:58;21.80;42.60
66598;DHT22;57424;53.128;6.406;2023-04-06T11:16:27;21.80;42.60
66598;DHT22;57424;53.128;6.406;2023-04-06T11:18:57;21.70;42.50
66598;DHT22;57424;53.128;6.406;2023-04-06T11:21:43;21.80;42.50
66598;DHT22;57424;53.128;6.406;2023-04-06T11:26:43;21.80;42.50
66598;DHT22;57424;53.128;6.406;2023-04-06T11:29:09;21.70;42.30
66598;DHT22;57424;53.128;6.406;2023-04-06T11:31:40;21.80;42.50
66598;DHT22;57424;53.128;6.406;2023-04-06T11:34:16;21.70;42.30
66598;DHT22;57424;53.128;6.406;2023-04-06T11:36:43;21.80;42.30
66598;DHT22;57424;53.128;6.406;2023-04-06T11:39:10;21.70;42.30
66598;DHT22;57424;53.128;6.406;2023-04-06T11:41:36;21.70;42.30
66598;DHT22;57424;53.128;6.406;2023-04-06T11:44:02;21.70;42.30
66598;DHT22;57424;53.128;6.406;2023-04-06T11:46:28;21.70;42.30
66598;DHT22;57424;53.128;6.406;2023-04-06T11:48:58;21.70;42.30
66598;DHT22;57424;53.128;6.406;2023-04-06T11:51:24;21.70;42.30
66598;DHT22;57424;53.128;6.406;2023-04-06T11:53:50;21.60;42.30
66598;DHT22;57424;53.128;6.406;2023-04-06T11:56:27;21.60;42.30
66598;DHT22;57424;53.128;6.406;2023-04-06T11:58:54;21.60;42.30
66598;DHT22;57424;53.128;6.406;2023-04-06T12:01:20;21.50;42.30
66598;DHT22;57424;53.128;6.406;2023-04-06T12:03:46;21.50;42.40
66598;DHT22;57424;53.128;6.406;2023-04-06T12:06:11;21.50;42.40
66598;DHT22;57424;53.128;6.406;2023-04-06T12:08:37;21.40;42.40
66598;DHT22;57424;53.128;6.406;2023-04-06T12:11:02;21.40;42.40
66598;DHT22;57424;53.128;6.406;2023-04-06T12:13:28;21.40;42.40
66598;DHT22;57424;53.128;6.406;2023-04-06T12:15:54;21.40;42.50
66598;DHT22;57424;53.128;6.406;2023-04-06T12:18:19;21.30;42.50
66598;DHT22;57424;53.128;6.406;2023-04-06T12:20:45;21.30;42.50
66598;DHT22;57424;53.128;6.406;2023-04-06T12:23:10;21.30;42.50
66598;DHT22;57424;53.128;6.406;2023-04-06T12:25:39;21.20;42.60
66598;DHT22;57424;53.128;6.406;2023-04-06T12:28:05;21.20;42.60
66598;DHT22;57424;53.128;6.406;2023-04-06T12:30:30;21.10;42.60
66598;DHT22;57424;53.128;6.406;2023-04-06T12:32:57;21.10;42.70
66598;DHT22;57424;53.128;6.406;2023-04-06T12:35:23;21.10;42.70
66598;DHT22;57424;53.128;6.406;2023-04-06T12:37:48;21.10;42.80
66598;DHT22;57424;53.128;6.406;2023-04-06T12:40:14;21.10;42.80
66598;DHT22;57424;53.128;6.406;2023-04-06T12:42:40;21.00;42.80
66598;DHT22;57424;53.128;6.406;2023-04-06T12:45:07;21.00;42.90
66598;DHT22;57424;53.128;6.406;2023-04-06T12:47:33;21.00;42.90
66598;DHT22;57424;53.128;6.406;2023-04-06T12:49:58;21.00;42.90
66598;DHT22;57424;53.128;6.406;2023-04-06T12:52:24;20.90;43.00
66598;DHT22;57424;53.128;6.406;2023-04-06T12:54:50;20.90;43.00
66598;DHT22;57424;53.128;6.406;2023-04-06T12:57:16;20.90;43.10
66598;DHT22;57424;53.128;6.406;2023-04-06T12:59:45;20.90;43.10
66598;DHT22;57424;53.128;6.406;2023-04-06T13:02:11;20.90;43.00
66598;DHT22;57424;53.128;6.406;2023-04-06T13:04:37;20.90;43.10
66598;DHT22;57424;53.128;6.406;2023-04-06T13:07:02;20.90;43.10
66598;DHT22;57424;53.128;6.406;2023-04-06T13:09:28;20.90;43.10
66598;DHT22;57424;53.128;6.406;2023-04-06T13:11:53;20.80;43.00
66598;DHT22;57424;53.128;6.406;2023-04-06T13:14:19;20.80;43.00
66598;DHT22;57424;53.128;6.406;2023-04-06T13:16:46;20.80;43.10
66598;DHT22;57424;53.128;6.406;2023-04-06T13:19:11;20.80;43.10
66598;DHT22;57424;53.128;6.406;2023-04-06T13:21:37;20.80;43.10
66598;DHT22;57424;53.128;6.406;2023-04-06T13:24:03;20.70;43.10
66598;DHT22;57424;53.128;6.406;2023-04-06T13:26:30;20.70;43.10
66598;DHT22;57424;53.128;6.406;2023-04-06T13:28:56;20.70;43.00
66598;DHT22;57424;53.128;6.406;2023-04-06T13:31:22;20.70;42.00
66598;DHT22;57424;53.128;6.406;2023-04-06T13:33:47;20.70;41.00
66598;DHT22;57424;53.128;6.406;2023-04-06T13:36:13;20.60;40.80
66598;DHT22;57424;53.128;6.406;2023-04-06T13:38:39;20.60;41.00
66598;DHT22;57424;53.128;6.406;2023-04-06T13:41:05;20.50;41.10
66598;DHT22;57424;53.128;6.406;2023-04-06T13:43:31;20.50;41.30
66598;DHT22;57424;53.128;6.406;2023-04-06T13:45:57;20.50;41.40
66598;DHT22;57424;53.128;6.406;2023-04-06T13:48:25;20.50;41.60
66598;DHT22;57424;53.128;6.406;2023-04-06T13:50:54;20.50;41.60
66598;DHT22;57424;53.128;6.406;2023-04-06T13:53:19;20.50;41.70
66598;DHT22;57424;53.128;6.406;2023-04-06T13:55:52;20.50;41.80
66598;DHT22;57424;53.128;6.406;2023-04-06T13:58:18;20.40;41.80
66598;DHT22;57424;53.128;6.406;2023-04-06T14:00:44;20.40;41.90
66598;DHT22;57424;53.128;6.406;2023-04-06T14:03:09;20.40;42.70
66598;DHT22;57424;53.128;6.406;2023-04-06T14:05:35;20.40;42.10
66598;DHT22;57424;53.128;6.406;2023-04-06T14:08:01;20.40;42.20
66598;DHT22;57424;53.128;6.406;2023-04-06T14:10:27;20.40;42.20
66598;DHT22;57424;53.128;6.406;2023-04-06T14:12:53;20.30;42.20
66598;DHT22;57424;53.128;6.406;2023-04-06T14:15:18;20.40;42.30
66598;DHT22;57424;53.128;6.406;2023-04-06T14:17:44;20.30;42.40
66598;DHT22;57424;53.128;6.406;2023-04-06T14:20:10;20.30;42.40
66598;DHT22;57424;53.128;6.406;2023-04-06T14:22:40;20.30;42.40
66598;DHT22;57424;53.128;6.406;2023-04-06T14:25:06;20.30;42.50
66598;DHT22;57424;53.128;6.406;2023-04-06T14:27:32;20.30;42.60
66598;DHT22;57424;53.128;6.406;2023-04-06T14:29:58;20.30;42.60
66598;DHT22;57424;53.128;6.406;2023-04-06T14:32:23;20.30;42.80
66598;DHT22;57424;53.128;6.406;2023-04-06T14:34:49;20.30;43.00
66598;DHT22;57424;53.128;6.406;2023-04-06T14:37:15;20.20;43.00
66598;DHT22;57424;53.128;6.406;2023-04-06T14:39:42;20.30;43.10
66598;DHT22;57424;53.128;6.406;2023-04-06T14:42:08;20.30;43.20
66598;DHT22;57424;53.128;6.406;2023-04-06T14:44:34;20.30;43.90
66598;DHT22;57424;53.128;6.406;2023-04-06T14:47:02;20.30;43.30
66598;DHT22;57424;53.128;6.406;2023-04-06T14:49:29;20.20;43.30
66598;DHT22;57424;53.128;6.406;2023-04-06T14:51:55;20.20;43.30
66598;DHT22;57424;53.128;6.406;2023-04-06T14:54:21;20.20;43.20
66598;DHT22;57424;53.128;6.406;2023-04-06T14:56:47;20.20;43.20
66598;DHT22;57424;53.128;6.406;2023-04-06T14:59:12;20.20;43.10
66598;DHT22;57424;53.128;6.406;2023-04-06T15:01:38;20.20;43.00
66598;DHT22;57424;53.128;6.406;2023-04-06T15:04:04;20.20;43.00
66598;DHT22;57424;53.128;6.406;2023-04-06T15:06:29;20.20;43.00
66598;DHT22;57424;53.128;6.406;2023-04-06T15:08:56;20.20;43.10
66598;DHT22;57424;53.128;6.406;2023-04-06T15:11:21;20.20;43.10
66598;DHT22;57424;53.128;6.406;2023-04-06T15:13:47;20.20;43.10
66598;DHT22;57424;53.128;6.406;2023-04-06T15:16:12;20.20;43.10
66598;DHT22;57424;53.128;6.406;2023-04-06T15:18:39;20.20;43.10
66598;DHT22;57424;53.128;6.406;2023-04-06T15:21:05;20.20;43.10
66598;DHT22;57424;53.128;6.406;2023-04-06T15:23:32;20.10;43.00
66598;DHT22;57424;53.128;6.406;2023-04-06T15:25:59;20.10;43.00
66598;DHT22;57424;53.128;6.406;2023-04-06T15:28:25;20.10;43.10
66598;DHT22;57424;53.128;6.406;2023-04-06T15:30:51;20.10;43.10
66598;DHT22;57424;53.128;6.406;2023-04-06T15:33:16;20.00;43.10
66598;DHT22;57424;53.128;6.406;2023-04-06T15:35:42;20.10;43.10